createdAt,value
2017-07-10T00:02:45.752Z,0
2017-07-10T00:12:45.717Z,0
2017-07-10T00:22:45.762Z,0
2017-07-10T00:32:45.740Z,0
2017-07-10T00:42:45.674Z,0
2017-07-10T00:52:45.746Z,0
2017-07-10T01:02:45.711Z,0
2017-07-10T01:12:45.662Z,0
2017-07-10T01:22:45.720Z,0
2017-07-10T01:32:45.714Z,0
2017-07-10T01:42:45.753Z,0
2017-07-10T01:52:45.701Z,0
2017-07-10T02:02:45.658Z,0
2017-07-10T02:12:45.729Z,0
2017-07-10T02:22:45.678Z,0
2017-07-10T02:32:45.745Z,0
2017-07-10T02:42:45.720Z,4
2017-07-10T02:52:45.675Z,8
2017-07-10T03:02:45.714Z,12
2017-07-10T03:12:45.683Z,32
2017-07-10T03:22:45.659Z,56
2017-07-10T03:32:45.729Z,80
2017-07-10T03:42:45.675Z,156
2017-07-10T03:52:45.751Z,568
2017-07-10T04:02:45.701Z,1120
2017-07-10T04:12:45.658Z,1332
2017-07-10T04:22:45.723Z,1772
2017-07-10T04:32:45.663Z,1868
2017-07-10T04:42:45.756Z,1968
2017-07-10T04:52:45.708Z,2368
2017-07-10T05:02:45.681Z,2272
2017-07-10T05:12:45.746Z,1980
2017-07-10T05:22:45.677Z,1948
2017-07-10T05:32:45.770Z,2156
2017-07-10T05:42:45.696Z,2772
2017-07-10T05:52:45.684Z,3080
2017-07-10T06:02:45.739Z,3388
2017-07-10T06:12:45.707Z,3832
2017-07-10T06:22:45.751Z,3212
2017-07-10T06:32:45.720Z,3400
2017-07-10T06:42:45.699Z,4448
2017-07-10T06:52:45.747Z,5092
2017-07-10T07:02:45.801Z,10044
2017-07-10T07:12:45.885Z,7676
2017-07-10T07:22:45.735Z,6516
2017-07-10T07:32:45.680Z,6656
2017-07-10T07:42:45.647Z,5320
2017-07-10T07:52:45.642Z,5144
2017-07-10T08:02:45.651Z,5012
2017-07-10T08:12:45.691Z,5960
2017-07-10T08:22:45.780Z,5320
2017-07-10T08:32:45.662Z,4928
2017-07-10T08:42:45.770Z,5948
2017-07-10T08:52:45.661Z,7520
2017-07-10T09:02:45.661Z,10892
2017-07-10T09:12:45.674Z,10724
2017-07-10T09:22:45.674Z,15504
2017-07-10T09:32:45.686Z,15884
2017-07-10T09:42:45.676Z,17004
2017-07-10T09:52:45.663Z,21344
2017-07-10T10:02:46.029Z,24704
2017-07-10T10:12:45.685Z,19284
2017-07-10T10:22:45.672Z,18856
2017-07-10T10:32:45.685Z,23200
2017-07-10T10:42:45.704Z,18208
2017-07-10T10:52:45.685Z,13248
2017-07-10T11:02:45.682Z,17436
2017-07-10T11:12:45.694Z,15424
2017-07-10T11:22:45.681Z,15220
2017-07-10T11:32:45.704Z,15972
2017-07-10T11:42:45.692Z,13248
2017-07-10T11:52:45.707Z,12924
2017-07-10T12:02:45.705Z,16748
2017-07-10T12:12:45.716Z,10728
2017-07-10T12:22:45.714Z,14404
2017-07-10T12:32:45.713Z,19456
2017-07-10T12:42:45.718Z,13780
2017-07-10T12:52:45.793Z,9984
2017-07-10T13:02:45.739Z,5216
2017-07-10T13:12:45.807Z,6932
2017-07-10T13:22:45.753Z,11452
2017-07-10T13:32:45.852Z,17788
2017-07-10T13:42:45.770Z,15440
2017-07-10T13:52:45.829Z,10616
2017-07-10T14:02:45.810Z,14700
2017-07-10T14:12:45.766Z,14136
2017-07-10T14:22:45.807Z,6308
2017-07-10T14:32:45.753Z,7876
2017-07-10T14:42:46.216Z,13816
2017-07-10T14:52:45.818Z,10540
2017-07-10T15:02:51.246Z,7088
2017-07-10T15:12:45.848Z,11608
2017-07-10T15:22:45.789Z,4996
2017-07-10T15:32:45.936Z,5692
2017-07-10T15:42:45.865Z,5984
2017-07-10T15:52:45.833Z,7156
2017-07-10T16:02:45.779Z,12748
2017-07-10T16:12:45.884Z,10856
2017-07-10T16:22:45.819Z,8408
2017-07-10T16:32:46.155Z,2608
2017-07-10T16:42:45.849Z,1460
2017-07-10T16:52:45.822Z,2780
2017-07-10T17:02:46.718Z,3684
2017-07-10T17:12:45.828Z,6344
2017-07-10T17:22:45.849Z,9120
2017-07-10T17:32:45.798Z,6880
2017-07-10T17:42:45.999Z,6248
2017-07-10T17:52:45.809Z,5960
2017-07-10T18:02:45.835Z,3232
2017-07-10T18:12:45.804Z,2096
2017-07-10T18:22:46.605Z,844
2017-07-10T18:32:45.814Z,692
2017-07-10T18:42:45.778Z,504
2017-07-10T18:52:45.819Z,776
2017-07-10T19:02:45.842Z,776
2017-07-10T19:12:45.784Z,648
2017-07-10T19:22:45.818Z,384
2017-07-10T19:32:45.844Z,140
2017-07-10T19:42:45.859Z,72
2017-07-10T19:52:45.819Z,20
2017-07-10T20:02:45.878Z,8
2017-07-10T20:12:45.816Z,8
2017-07-10T20:22:45.817Z,4
2017-07-10T20:32:46.336Z,4
2017-07-10T20:42:45.813Z,4
2017-07-10T20:52:45.807Z,4
2017-07-10T21:02:46.101Z,4
2017-07-10T21:12:45.816Z,4
2017-07-10T21:22:45.862Z,8
2017-07-10T21:32:47.096Z,8
2017-07-10T21:42:45.854Z,8
2017-07-10T21:52:45.840Z,8
2017-07-10T22:02:45.907Z,8
2017-07-10T22:12:45.862Z,0
2017-07-10T22:22:49.868Z,0
2017-07-10T22:32:45.856Z,0
2017-07-10T22:42:45.853Z,0
2017-07-10T22:52:46.048Z,0
2017-07-10T23:02:45.855Z,0
2017-07-10T23:12:45.919Z,0
2017-07-10T23:22:45.987Z,0
2017-07-10T23:32:45.909Z,0
2017-07-10T23:42:45.896Z,0
2017-07-10T23:52:46.887Z,0
